Time;durP1;ratioP1;P1;durP2;ratioP2;P2;SDS_P1;SDS_P2;PMS_P1;PMS_P2;Temp;Humidity;BMP_temperature;BMP_pressure;BME280_temperature;BME280_humidity;BME280_pressure;Samples;Min_cycle;Max_cycle;Signal;HPM_P1;HPM_P2
2023/04/13 00:02:24;;;;;;;1.40;1.30;;;7.70;97.30;;;;;;4948997;28;20685;-90
2023/04/13 00:04:50;;;;;;;0.97;0.87;;;7.70;97.30;;;;;;4943019;29;20184;-89
2023/04/13 00:07:17;;;;;;;1.00;0.90;;;7.70;97.30;;;;;;4935002;28;20812;-89
2023/04/13 00:09:46;;;;;;;1.27;1.17;;;7.70;97.30;;;;;;4935077;29;20648;-88
2023/04/13 00:12:12;;;;;;;1.30;1.20;;;7.70;97.30;;;;;;4941743;28;20455;-90
2023/04/13 00:14:38;;;;;;;1.30;1.20;;;7.70;97.30;;;;;;4936055;29;20432;-88
2023/04/13 00:17:03;;;;;;;1.10;1.00;;;7.70;97.30;;;;;;4929969;29;20426;-89
2023/04/13 00:19:29;;;;;;;9.40;2.47;;;7.70;97.30;;;;;;4930233;29;20212;-92
2023/04/13 00:21:56;;;;;;;1.47;1.37;;;7.70;97.30;;;;;;4926162;29;20612;-89
2023/04/13 00:24:21;;;;;;;1.10;1.00;;;7.70;97.30;;;;;;4932228;29;20239;-89
2023/04/13 00:26:47;;;;;;;1.20;1.03;;;7.70;97.30;;;;;;4940702;29;20450;-88
2023/04/13 00:29:13;;;;;;;1.00;0.90;;;7.60;97.30;;;;;;4926793;29;20646;-89
2023/04/13 00:31:38;;;;;;;1.20;1.10;;;7.50;97.30;;;;;;4936010;29;20683;-89
2023/04/13 00:34:04;;;;;;;1.10;1.00;;;7.50;97.30;;;;;;4933908;29;20191;-88
2023/04/13 00:36:30;;;;;;;6.03;1.77;;;7.50;97.30;;;;;;4937260;28;20192;-89
2023/04/13 00:38:56;;;;;;;1.30;1.20;;;7.40;97.30;;;;;;4943423;29;20464;-89
2023/04/13 00:41:23;;;;;;;1.43;1.33;;;7.40;97.30;;;;;;4929627;29;20200;-89
2023/04/13 00:43:49;;;;;;;1.10;1.00;;;7.40;97.30;;;;;;4935745;29;20243;-89
2023/04/13 00:46:20;;;;;;;1.00;0.90;;;7.30;97.30;;;;;;4951469;28;20447;-90
2023/04/13 00:48:47;;;;;;;1.10;1.00;;;7.30;97.30;;;;;;4936012;29;20462;-89
2023/04/13 00:51:14;;;;;;;9.37;3.13;;;7.30;97.30;;;;;;4938522;29;20960;-89
2023/04/13 00:53:41;;;;;;;1.10;1.00;;;7.30;97.30;;;;;;4965968;28;20455;-92
2023/04/13 00:56:07;;;;;;;1.03;0.93;;;7.30;97.30;;;;;;4959260;29;20506;-89
2023/04/13 00:58:32;;;;;;;1.30;1.20;;;7.30;97.30;;;;;;4933166;29;20431;-89
2023/04/13 01:00:58;;;;;;;1.10;1.00;;;7.20;97.30;;;;;;4937111;29;20440;-88
2023/04/13 01:03:24;;;;;;;1.10;1.00;;;7.20;97.30;;;;;;4948025;29;20631;-89
2023/04/13 01:06:32;;;;;;;1.37;1.10;;;7.20;97.30;;;;;;4937462;29;20255;-89
2023/04/13 01:09:07;;;;;;;1.40;1.30;;;7.20;97.30;;;;;;4928231;29;20435;-90
2023/04/13 01:11:57;;;;;;;0.90;0.80;;;7.10;97.30;;;;;;4937323;29;20503;-88
2023/04/13 01:14:36;;;;;;;1.10;1.00;;;7.20;97.30;;;;;;4947669;28;20952;-89
2023/04/13 01:17:09;;;;;;;1.30;1.20;;;7.10;97.30;;;;;;4934879;29;20420;-89
2023/04/13 01:19:45;;;;;;;1.10;1.00;;;7.10;97.30;;;;;;4935543;29;20466;-89
2023/04/13 01:22:13;;;;;;;0.90;0.80;;;7.10;97.30;;;;;;4927239;29;20554;-88
2023/04/13 01:25:05;;;;;;;2.40;1.40;;;7.10;97.30;;;;;;4930379;29;20436;-89
2023/04/13 01:28:07;;;;;;;1.00;1.00;;;7.10;97.30;;;;;;4924543;29;20602;-89
2023/04/13 01:30:38;;;;;;;1.60;1.50;;;7.10;97.30;;;;;;4932435;29;20514;-87
2023/04/13 01:33:04;;;;;;;1.03;0.93;;;7.10;97.30;;;;;;4928932;29;20424;-88
2023/04/13 01:35:31;;;;;;;1.20;1.10;;;7.20;97.30;;;;;;4934758;29;20430;-88
2023/04/13 01:37:57;;;;;;;1.37;1.27;;;7.20;97.30;;;;;;4934998;29;20499;-89
2023/04/13 01:40:25;;;;;;;1.10;1.00;;;7.20;97.30;;;;;;4935018;29;20554;-89
2023/04/13 01:42:51;;;;;;;3.13;1.93;;;7.20;97.30;;;;;;4937981;29;20432;-89
2023/04/13 01:45:42;;;;;;;1.00;0.90;;;7.20;97.30;;;;;;4936685;29;21110;-89
2023/04/13 01:48:13;;;;;;;1.83;1.73;;;7.20;97.30;;;;;;4945389;28;20421;-89
2023/04/13 01:50:42;;;;;;;1.63;1.53;;;7.10;97.30;;;;;;4924612;29;20819;-88
2023/04/13 01:53:14;;;;;;;1.50;1.40;;;7.10;97.30;;;;;;4934315;29;20428;-88
2023/04/13 01:55:40;;;;;;;1.20;1.10;;;7.10;97.30;;;;;;4935893;29;20530;-89
2023/04/13 01:58:09;;;;;;;1.00;0.90;;;7.10;97.30;;;;;;4933714;29;20508;-88
2023/04/13 02:00:35;;;;;;;1.10;1.00;;;7.10;97.30;;;;;;4933944;29;20484;-89
2023/04/13 02:03:03;;;;;;;1.20;1.10;;;7.10;97.30;;;;;;4937421;29;20475;-89
2023/04/13 02:05:30;;;;;;;1.00;0.90;;;7.00;97.30;;;;;;4939903;29;20505;-89
2023/04/13 02:07:55;;;;;;;1.00;0.90;;;7.00;97.30;;;;;;4944880;29;20422;-88
2023/04/13 02:10:21;;;;;;;2.30;1.33;;;7.00;97.30;;;;;;4938710;29;20955;-89
2023/04/13 02:12:46;;;;;;;1.20;1.10;;;7.00;97.30;;;;;;4924756;29;20181;-88
2023/04/13 02:15:12;;;;;;;1.10;1.00;;;6.90;97.30;;;;;;4930261;28;20188;-89
2023/04/13 02:17:38;;;;;;;1.10;1.00;;;6.90;97.30;;;;;;4927509;29;20212;-89
2023/04/13 02:20:10;;;;;;;1.20;1.10;;;6.90;97.30;;;;;;4932808;29;20211;-89
2023/04/13 02:22:36;;;;;;;1.10;1.00;;;6.90;97.30;;;;;;4934073;29;20738;-89
2023/04/13 02:25:01;;;;;;;1.50;1.17;;;6.80;97.30;;;;;;4938122;29;20419;-89
2023/04/13 02:27:30;;;;;;;1.30;1.20;;;6.80;97.30;;;;;;4936242;28;20195;-89
2023/04/13 02:29:55;;;;;;;1.30;1.20;;;6.80;97.30;;;;;;4930871;29;20287;-89
2023/04/13 02:32:21;;;;;;;1.20;1.10;;;6.80;97.30;;;;;;4932901;28;20555;-89
2023/04/13 02:34:46;;;;;;;1.20;1.10;;;6.70;97.30;;;;;;4932361;29;20188;-89
2023/04/13 02:37:14;;;;;;;1.20;1.10;;;6.80;97.30;;;;;;4932701;29;20242;-89
2023/04/13 02:39:40;;;;;;;1.00;0.90;;;6.80;97.30;;;;;;4921673;29;20419;-88
2023/04/13 02:42:06;;;;;;;1.30;1.20;;;6.80;97.30;;;;;;4952682;28;20530;-90
2023/04/13 02:44:32;;;;;;;1.00;0.90;;;6.80;97.30;;;;;;4935894;29;20416;-89
2023/04/13 02:46:58;;;;;;;1.13;1.03;;;6.80;97.30;;;;;;4932483;29;20172;-89
2023/04/13 02:49:23;;;;;;;1.17;1.07;;;6.80;97.30;;;;;;4930711;29;20560;-89
2023/04/13 02:51:49;;;;;;;1.20;1.13;;;6.80;97.30;;;;;;4932238;29;20207;-90
2023/04/13 02:54:15;;;;;;;1.30;1.20;;;6.80;97.30;;;;;;4929294;29;20186;-88
2023/04/13 02:56:42;;;;;;;5.53;1.50;;;6.80;97.30;;;;;;4927260;29;20341;-89
2023/04/13 02:59:07;;;;;;;1.70;1.60;;;6.80;97.30;;;;;;4929659;29;20534;-89
2023/04/13 03:01:33;;;;;;;1.73;1.63;;;6.80;97.30;;;;;;4935153;29;20448;-88
2023/04/13 03:03:58;;;;;;;1.20;1.10;;;6.80;97.30;;;;;;4936860;28;20176;-89
2023/04/13 03:06:25;;;;;;;6.80;1.67;;;6.80;97.30;;;;;;4939086;29;20703;-89
2023/04/13 03:08:50;;;;;;;1.10;1.00;;;6.80;97.30;;;;;;4928668;28;20321;-88
2023/04/13 03:11:17;;;;;;;1.30;1.20;;;6.70;97.30;;;;;;4922962;29;20582;-89
2023/04/13 03:13:42;;;;;;;1.27;1.17;;;6.70;97.30;;;;;;4948169;29;20182;-89
2023/04/13 03:16:11;;;;;;;1.20;1.10;;;6.60;97.30;;;;;;4939871;29;20418;-89
2023/04/13 03:18:39;;;;;;;1.20;1.10;;;6.60;97.30;;;;;;4931080;29;20175;-89
2023/04/13 03:21:05;;;;;;;1.20;1.10;;;6.50;97.30;;;;;;4947868;29;20537;-89
2023/04/13 03:23:31;;;;;;;1.07;0.97;;;6.50;97.30;;;;;;4930199;29;20467;-90
2023/04/13 03:25:56;;;;;;;1.00;0.90;;;6.50;97.30;;;;;;4931063;29;20428;-88
2023/04/13 03:28:22;;;;;;;1.10;1.00;;;6.60;97.30;;;;;;4933247;29;20238;-89
2023/04/13 03:30:48;;;;;;;1.00;0.90;;;6.60;97.30;;;;;;4932113;29;20271;-88
2023/04/13 03:33:13;;;;;;;1.13;1.03;;;6.60;97.30;;;;;;4931374;29;20424;-89
2023/04/13 03:35:39;;;;;;;1.10;1.00;;;6.60;97.30;;;;;;4921269;29;20290;-88
2023/04/13 03:38:05;;;;;;;1.90;1.30;;;6.60;97.30;;;;;;4949396;28;20191;-89
2023/04/13 03:40:30;;;;;;;1.10;1.00;;;6.50;97.30;;;;;;4937334;29;20217;-89
2023/04/13 03:42:55;;;;;;;1.23;1.13;;;6.50;97.30;;;;;;4929039;29;20275;-91
2023/04/13 03:45:21;;;;;;;1.10;1.00;;;6.40;97.30;;;;;;4936263;28;20184;-88
2023/04/13 03:47:46;;;;;;;1.40;1.30;;;6.40;97.30;;;;;;4933940;29;20685;-88
2023/04/13 03:50:12;;;;;;;1.23;1.13;;;6.40;97.30;;;;;;4947421;28;20180;-88
2023/04/13 03:52:38;;;;;;;1.07;0.97;;;6.30;97.30;;;;;;4936111;29;20250;-88
2023/04/13 03:55:04;;;;;;;1.00;0.90;;;6.30;97.30;;;;;;4937044;29;20219;-87
2023/04/13 03:57:29;;;;;;;1.43;1.33;;;6.20;97.30;;;;;;4940175;29;20184;-87
2023/04/13 03:59:55;;;;;;;1.00;0.90;;;6.20;97.30;;;;;;4945714;28;20972;-90
2023/04/13 04:02:20;;;;;;;1.00;0.90;;;6.20;97.30;;;;;;4952752;28;20242;-89
2023/04/13 04:04:46;;;;;;;1.67;1.63;;;6.30;97.30;;;;;;4933280;29;20596;-88
2023/04/13 04:07:12;;;;;;;1.67;1.57;;;6.30;97.30;;;;;;4928420;29;20180;-88
2023/04/13 04:09:38;;;;;;;1.20;1.10;;;6.30;97.30;;;;;;4938190;29;20438;-89
2023/04/13 04:12:04;;;;;;;1.63;1.53;;;6.40;97.30;;;;;;4939736;29;20250;-88
2023/04/13 04:14:29;;;;;;;2.10;1.40;;;6.40;97.30;;;;;;4927172;29;20188;-88
2023/04/13 04:16:55;;;;;;;5.47;1.30;;;6.40;97.30;;;;;;4941387;29;20266;-88
2023/04/13 04:19:20;;;;;;;1.10;1.00;;;6.40;97.30;;;;;;4955196;28;20267;-88
2023/04/13 04:21:46;;;;;;;1.00;0.90;;;6.50;97.30;;;;;;4949771;28;20230;-89
2023/04/13 04:24:21;;;;;;;1.20;1.10;;;6.50;97.30;;;;;;4930281;29;20195;-88
2023/04/13 04:26:49;;;;;;;1.10;1.00;;;6.50;97.30;;;;;;4926922;29;20179;-88
2023/04/13 04:29:20;;;;;;;1.10;1.00;;;6.60;97.30;;;;;;4928916;29;20431;-91
2023/04/13 04:31:51;;;;;;;2.53;1.10;;;6.60;97.30;;;;;;4932133;29;20640;-89
2023/04/13 04:34:17;;;;;;;1.53;1.40;;;6.70;97.30;;;;;;4941927;29;20442;-88
2023/04/13 04:36:49;;;;;;;1.27;1.17;;;6.70;97.30;;;;;;4935387;29;20514;-88
2023/04/13 04:39:21;;;;;;;5.03;3.60;;;6.70;97.30;;;;;;4947403;28;21186;-89
2023/04/13 04:41:54;;;;;;;1.20;1.10;;;6.80;97.30;;;;;;4940223;29;20447;-88
2023/04/13 04:44:23;;;;;;;1.53;1.43;;;6.80;97.30;;;;;;4951559;28;20427;-89
2023/04/13 04:46:51;;;;;;;1.50;1.40;;;6.90;97.30;;;;;;4919640;29;20429;-90
2023/04/13 04:49:17;;;;;;;1.10;1.00;;;6.90;97.30;;;;;;4928131;29;20774;-88
2023/04/13 04:51:43;;;;;;;1.00;0.90;;;7.00;97.30;;;;;;4950302;29;20879;-88
2023/04/13 04:54:08;;;;;;;1.37;1.27;;;7.00;97.30;;;;;;4939180;29;20431;-88
2023/04/13 04:56:34;;;;;;;1.00;0.90;;;7.00;97.30;;;;;;4923053;29;20624;-88
2023/04/13 04:58:59;;;;;;;1.00;0.90;;;7.10;97.30;;;;;;4943724;28;20628;-88
2023/04/13 05:01:25;;;;;;;1.00;0.90;;;7.10;97.30;;;;;;4934679;29;20191;-88
2023/04/13 05:03:51;;;;;;;1.10;1.00;;;7.10;97.30;;;;;;4938368;28;20262;-88
2023/04/13 05:06:17;;;;;;;1.20;1.10;;;7.10;97.30;;;;;;4947498;29;20191;-88
2023/04/13 05:08:43;;;;;;;1.17;1.07;;;7.20;97.30;;;;;;4941558;29;20424;-87
2023/04/13 05:11:09;;;;;;;1.10;1.00;;;7.20;97.30;;;;;;4927124;29;20417;-89
2023/04/13 05:13:34;;;;;;;1.10;1.00;;;7.20;97.30;;;;;;4930772;29;20518;-88
2023/04/13 05:16:00;;;;;;;1.00;0.90;;;7.30;97.30;;;;;;4937448;29;20180;-88
2023/04/13 05:18:29;;;;;;;1.40;1.30;;;7.30;97.30;;;;;;4928381;29;20188;-88
2023/04/13 05:20:55;;;;;;;1.17;1.07;;;7.40;97.30;;;;;;4934601;29;20227;-89
2023/04/13 05:23:20;;;;;;;1.17;1.07;;;7.40;97.30;;;;;;4932004;29;21003;-89
2023/04/13 05:25:46;;;;;;;1.10;1.00;;;7.40;97.30;;;;;;4935941;29;20609;-89
2023/04/13 05:28:11;;;;;;;1.00;0.90;;;7.50;97.30;;;;;;4933364;29;20191;-88
2023/04/13 05:30:37;;;;;;;1.00;0.90;;;7.50;97.30;;;;;;4934014;29;20271;-87
2023/04/13 05:33:05;;;;;;;1.00;0.90;;;7.60;97.30;;;;;;4930538;29;20215;-88
2023/04/13 05:35:30;;;;;;;1.10;1.00;;;7.60;97.30;;;;;;4925399;29;20196;-89
2023/04/13 05:37:58;;;;;;;1.53;1.43;;;7.60;97.30;;;;;;4930737;29;20461;-89
2023/04/13 05:40:24;;;;;;;1.00;0.90;;;7.60;97.30;;;;;;4950147;29;20214;-89
2023/04/13 05:42:50;;;;;;;1.00;0.90;;;7.60;97.30;;;;;;4934813;29;20416;-89
2023/04/13 05:45:15;;;;;;;29.17;3.37;;;7.70;97.30;;;;;;4929844;29;20515;-89
2023/04/13 05:47:41;;;;;;;1.00;0.90;;;7.70;97.30;;;;;;4933829;29;20187;-90
2023/04/13 05:50:08;;;;;;;1.10;1.00;;;7.70;97.30;;;;;;4944689;28;20247;-90
2023/04/13 05:52:33;;;;;;;1.00;0.90;;;7.80;97.30;;;;;;4924449;29;20740;-87
2023/04/13 05:55:00;;;;;;;2.30;2.10;;;7.80;97.30;;;;;;4925179;29;20427;-88
2023/04/13 05:57:26;;;;;;;1.57;1.47;;;7.80;97.30;;;;;;4918522;29;20217;-89
2023/04/13 05:59:52;;;;;;;1.17;1.07;;;7.90;97.30;;;;;;4930943;29;20463;-90
2023/04/13 06:02:19;;;;;;;1.07;0.97;;;7.90;97.30;;;;;;4934304;29;20212;-91
2023/04/13 06:04:44;;;;;;;1.10;1.00;;;7.90;97.30;;;;;;4940679;29;20188;-91
2023/04/13 06:07:13;;;;;;;4.77;1.10;;;7.90;97.30;;;;;;4939585;29;20594;-89
2023/04/13 06:09:38;;;;;;;1.10;1.00;;;7.90;97.30;;;;;;4931744;29;20179;-90
2023/04/13 06:12:04;;;;;;;1.30;1.20;;;8.00;97.30;;;;;;4932979;29;20436;-90
2023/04/13 06:14:30;;;;;;;1.00;0.90;;;8.00;97.30;;;;;;4922791;29;20188;-90
2023/04/13 06:16:56;;;;;;;1.00;0.90;;;8.00;97.30;;;;;;4923769;29;20321;-89
2023/04/13 06:19:21;;;;;;;1.40;1.30;;;8.00;97.30;;;;;;4928012;29;20568;-90
2023/04/13 06:21:47;;;;;;;1.00;0.90;;;8.00;97.30;;;;;;4925771;29;20216;-88
2023/04/13 06:24:12;;;;;;;1.10;1.00;;;8.00;97.30;;;;;;4926325;29;20672;-90
2023/04/13 06:26:38;;;;;;;1.33;1.27;;;8.10;97.30;;;;;;4933944;29;20176;-91
2023/04/13 06:29:03;;;;;;;0.90;0.80;;;8.20;97.30;;;;;;4931713;28;20200;-90
2023/04/13 06:31:29;;;;;;;1.17;1.00;;;8.20;97.30;;;;;;4938317;29;20282;-89
2023/04/13 06:33:55;;;;;;;1.00;0.90;;;8.20;97.30;;;;;;4932247;29;20594;-89
2023/04/13 06:36:21;;;;;;;1.27;1.03;;;8.30;97.30;;;;;;4930224;29;20191;-90
2023/04/13 06:38:46;;;;;;;1.10;1.00;;;8.30;97.30;;;;;;4939945;29;20447;-90
2023/04/13 06:41:12;;;;;;;1.20;1.10;;;8.30;97.30;;;;;;4930902;29;20200;-90
2023/04/13 06:43:37;;;;;;;1.30;1.20;;;8.30;97.30;;;;;;4940490;29;20267;-90
2023/04/13 06:46:03;;;;;;;1.87;1.20;;;8.40;97.30;;;;;;4938357;29;20648;-90
2023/04/13 06:48:29;;;;;;;1.43;1.33;;;8.40;97.30;;;;;;4929484;29;20217;-91
2023/04/13 06:50:56;;;;;;;1.90;1.10;;;8.40;97.30;;;;;;4935563;29;20203;-89
2023/04/13 06:53:22;;;;;;;1.10;1.00;;;8.50;97.30;;;;;;4933276;29;20435;-91
2023/04/13 06:55:47;;;;;;;1.10;1.00;;;8.50;97.30;;;;;;4929579;29;20486;-89
2023/04/13 06:58:13;;;;;;;1.00;0.90;;;8.50;97.30;;;;;;4943960;29;20428;-89
2023/04/13 07:00:38;;;;;;;1.13;1.03;;;8.60;97.30;;;;;;4952567;28;20226;-89
2023/04/13 07:03:04;;;;;;;1.10;1.00;;;8.60;97.30;;;;;;4944335;29;20175;-89
2023/04/13 07:05:30;;;;;;;0.97;0.87;;;8.70;97.30;;;;;;4935787;29;20650;-90
2023/04/13 07:07:56;;;;;;;0.90;0.80;;;8.70;97.30;;;;;;4931073;29;20179;-88
2023/04/13 07:10:21;;;;;;;3.03;1.40;;;8.70;97.30;;;;;;4932908;29;20940;-89
2023/04/13 07:12:47;;;;;;;1.10;1.00;;;8.80;97.30;;;;;;4937750;29;20259;-89
2023/04/13 07:15:13;;;;;;;1.40;1.30;;;8.80;97.30;;;;;;4941090;28;20194;-90
2023/04/13 07:17:39;;;;;;;1.03;0.93;;;8.80;97.30;;;;;;4935001;29;20180;-89
2023/04/13 07:20:06;;;;;;;4.10;1.83;;;8.90;97.30;;;;;;4946629;29;20456;-89
2023/04/13 07:22:32;;;;;;;1.60;1.50;;;8.90;97.30;;;;;;4932219;29;20322;-90
2023/04/13 07:24:58;;;;;;;1.30;1.20;;;8.90;97.30;;;;;;4946351;29;20420;-90
2023/04/13 07:27:23;;;;;;;1.00;0.90;;;9.00;97.30;;;;;;4933044;29;20801;-89
2023/04/13 07:29:53;;;;;;;1.10;1.00;;;9.10;97.30;;;;;;4933451;29;20412;-91
2023/04/13 07:32:19;;;;;;;1.80;1.27;;;9.20;97.30;;;;;;4932819;29;20223;-90
2023/04/13 07:34:45;;;;;;;0.90;0.80;;;9.30;97.30;;;;;;4932643;29;20597;-89
2023/04/13 07:37:11;;;;;;;1.00;0.90;;;9.50;97.30;;;;;;4943271;29;20960;-90
2023/04/13 07:39:36;;;;;;;1.10;1.00;;;9.60;97.30;;;;;;4934120;29;20468;-90
2023/04/13 07:42:02;;;;;;;1.00;0.90;;;9.70;97.30;;;;;;4930604;29;20263;-91
2023/04/13 07:44:27;;;;;;;1.30;1.20;;;9.70;97.00;;;;;;4931779;29;20274;-88
2023/04/13 07:46:55;;;;;;;1.20;1.10;;;9.70;97.10;;;;;;4922291;29;20180;-91
2023/04/13 07:49:21;;;;;;;1.43;1.00;;;9.60;96.60;;;;;;4932915;29;20186;-91
2023/04/13 07:51:47;;;;;;;1.50;1.40;;;9.60;96.70;;;;;;4963083;28;20478;-93
2023/04/13 07:54:12;;;;;;;11.43;2.80;;;9.60;96.40;;;;;;4957353;28;20460;-91
2023/04/13 07:56:38;;;;;;;2.17;1.20;;;9.60;96.50;;;;;;4937820;29;20558;-91
2023/04/13 07:59:03;;;;;;;1.63;1.53;;;9.70;96.40;;;;;;4938912;29;20683;-90
2023/04/13 08:01:29;;;;;;;0.90;0.80;;;9.80;96.80;;;;;;4927671;29;20701;-91
2023/04/13 08:03:55;;;;;;;1.17;1.07;;;9.90;95.80;;;;;;4922639;29;20181;-90
2023/04/13 08:06:22;;;;;;;1.07;0.97;;;10.00;96.00;;;;;;4926213;29;20427;-90
2023/04/13 08:08:47;;;;;;;1.30;1.20;;;10.00;95.40;;;;;;4935854;29;20184;-90
2023/04/13 08:11:13;;;;;;;0.90;0.80;;;10.10;94.90;;;;;;4926447;29;20451;-88
2023/04/13 08:13:39;;;;;;;1.20;1.10;;;10.20;94.90;;;;;;4930554;29;20514;-89
2023/04/13 08:16:05;;;;;;;1.20;1.10;;;10.20;94.00;;;;;;4935026;29;20271;-90
2023/04/13 08:18:31;;;;;;;0.90;0.80;;;10.20;93.90;;;;;;4922939;29;20415;-89
2023/04/13 08:20:57;;;;;;;1.03;0.93;;;10.40;93.50;;;;;;4942428;28;20373;-89
2023/04/13 08:23:23;;;;;;;2.80;1.43;;;10.60;93.40;;;;;;4934812;29;20666;-90
2023/04/13 08:25:49;;;;;;;1.00;0.90;;;10.80;93.60;;;;;;4935043;29;20415;-89
2023/04/13 08:28:14;;;;;;;1.10;1.00;;;11.00;93.20;;;;;;4936113;29;20753;-91
2023/04/13 08:30:41;;;;;;;1.77;1.67;;;11.20;91.70;;;;;;4922300;29;20560;-90
2023/04/13 08:33:07;;;;;;;1.00;0.90;;;11.40;90.80;;;;;;4933147;29;20641;-89
2023/04/13 08:35:34;;;;;;;1.20;1.10;;;11.60;91.10;;;;;;4928331;29;20485;-89
2023/04/13 08:38:01;;;;;;;26.63;1.30;;;11.80;89.90;;;;;;4933637;29;20427;-89
2023/04/13 08:40:27;;;;;;;1.00;0.90;;;11.70;88.80;;;;;;4928588;29;20470;-88
2023/04/13 08:42:54;;;;;;;1.20;1.10;;;11.60;89.10;;;;;;4929688;29;20429;-89
2023/04/13 08:45:20;;;;;;;1.00;0.90;;;11.60;88.90;;;;;;4933518;28;20187;-88
2023/04/13 08:47:45;;;;;;;1.00;0.90;;;11.60;88.70;;;;;;4936500;29;20838;-90
2023/04/13 08:50:12;;;;;;;3.43;2.43;;;11.50;88.80;;;;;;4926638;29;20188;-90
2023/04/13 08:52:38;;;;;;;0.90;0.90;;;11.40;89.30;;;;;;4939371;29;20692;-90
2023/04/13 08:55:04;;;;;;;1.37;1.27;;;11.50;89.50;;;;;;4932829;29;20434;-91
2023/04/13 08:57:30;;;;;;;0.93;0.83;;;11.60;89.60;;;;;;4929837;29;20506;-90
2023/04/13 08:59:57;;;;;;;1.10;1.00;;;11.60;89.20;;;;;;4926764;29;20865;-89
2023/04/13 09:02:27;;;;;;;1.43;1.10;;;11.60;88.90;;;;;;4933603;29;20439;-89
2023/04/13 09:05:04;;;;;;;0.90;0.80;;;11.50;89.20;;;;;;4940004;29;20960;-89
2023/04/13 09:07:33;;;;;;;0.97;0.87;;;11.50;88.80;;;;;;4937303;29;20464;-89
2023/04/13 09:09:59;;;;;;;4.63;1.00;;;11.40;89.00;;;;;;4935512;29;20478;-89
2023/04/13 09:12:26;;;;;;;0.90;0.80;;;11.30;89.20;;;;;;4928506;29;20462;-88
2023/04/13 09:14:52;;;;;;;1.17;1.07;;;11.30;89.50;;;;;;4941604;29;20430;-87
2023/04/13 09:17:25;;;;;;;1.20;1.10;;;11.40;90.10;;;;;;4938799;29;20417;-88
2023/04/13 09:19:52;;;;;;;1.20;1.10;;;11.60;89.10;;;;;;4924935;29;20248;-88
2023/04/13 09:22:17;;;;;;;1.10;1.00;;;11.60;88.70;;;;;;4933758;29;20482;-90
2023/04/13 09:24:43;;;;;;;1.00;0.90;;;11.70;89.00;;;;;;4934350;29;20937;-91
2023/04/13 09:27:22;;;;;;;1.00;0.90;;;11.70;88.80;;;;;;4942824;29;20246;-89
2023/04/13 09:29:59;;;;;;;1.03;0.93;;;11.60;88.70;;;;;;4930320;29;20191;-89
2023/04/13 09:32:27;;;;;;;1.53;1.00;;;11.60;88.80;;;;;;4926935;29;20439;-90
2023/04/13 09:35:04;;;;;;;1.33;1.33;;;11.60;89.20;;;;;;4949981;29;20432;-88
2023/04/13 09:37:31;;;;;;;2.93;1.10;;;11.60;88.50;;;;;;4932212;29;20458;-90
2023/04/13 09:40:17;;;;;;;0.97;0.93;;;11.60;89.10;;;;;;4936633;29;20838;-89
2023/04/13 09:43:03;;;;;;;1.10;1.00;;;11.80;89.00;;;;;;4933809;29;20521;-87
2023/04/13 09:45:39;;;;;;;2.00;1.23;;;11.80;88.00;;;;;;4932762;29;20471;-90
2023/04/13 09:48:16;;;;;;;4.10;1.83;;;11.60;88.30;;;;;;4941317;29;20412;-89
2023/04/13 09:50:42;;;;;;;3.43;1.10;;;11.70;88.90;;;;;;4928229;29;20494;-89
2023/04/13 09:53:09;;;;;;;1.00;0.90;;;11.80;89.10;;;;;;4925300;29;20455;-89
2023/04/13 09:55:36;;;;;;;1.10;1.00;;;11.90;88.70;;;;;;4949613;28;20486;-88
2023/04/13 09:58:18;;;;;;;1.00;0.90;;;11.80;88.00;;;;;;4934480;29;20428;-90
2023/04/13 10:00:45;;;;;;;1.20;1.10;;;11.80;89.00;;;;;;4935380;29;20471;-90
2023/04/13 10:03:15;;;;;;;7.10;1.83;;;11.90;89.50;;;;;;4939556;29;20609;-88
2023/04/13 10:05:42;;;;;;;1.10;1.00;;;12.00;89.30;;;;;;4947461;28;20427;-87
2023/04/13 10:08:08;;;;;;;0.90;0.80;;;12.00;89.30;;;;;;4942520;29;20430;-90
2023/04/13 10:10:35;;;;;;;2.00;1.50;;;11.90;88.80;;;;;;4946476;29;20781;-90
2023/04/13 10:13:04;;;;;;;1.53;1.47;;;12.00;89.00;;;;;;4941443;28;20454;-89
2023/04/13 10:15:57;;;;;;;1.37;1.27;;;12.20;87.80;;;;;;4923544;29;20441;-90
2023/04/13 10:19:00;;;;;;;1.20;1.10;;;12.20;87.30;;;;;;4930091;29;20430;-89
2023/04/13 10:21:38;;;;;;;1.27;1.20;;;12.20;87.30;;;;;;4927812;29;20443;-89
2023/04/13 10:24:07;;;;;;;1.37;1.37;;;12.10;87.60;;;;;;4928913;29;20531;-90
2023/04/13 10:26:35;;;;;;;1.00;0.90;;;12.10;87.70;;;;;;4944568;29;20424;-89
2023/04/13 10:29:02;;;;;;;0.90;0.80;;;12.10;88.10;;;;;;4926853;29;20447;-87
2023/04/13 10:31:45;;;;;;;1.00;0.90;;;12.00;87.80;;;;;;4922311;29;20435;-88
2023/04/13 10:34:25;;;;;;;2.90;1.20;;;11.80;87.80;;;;;;4933917;29;20411;-89
2023/04/13 10:36:54;;;;;;;1.13;1.03;;;11.70;87.70;;;;;;4948607;28;20420;-89
2023/04/13 10:39:27;;;;;;;1.53;1.43;;;11.70;87.90;;;;;;4926579;29;20468;-89
2023/04/13 10:42:04;;;;;;;1.00;0.90;;;11.70;88.60;;;;;;4925230;29;20532;-89
2023/04/13 10:44:47;;;;;;;0.93;0.87;;;11.70;88.40;;;;;;4932194;29;20415;-89
2023/04/13 10:47:15;;;;;;;1.07;0.97;;;11.60;88.40;;;;;;4935484;29;20498;-89
2023/04/13 10:49:42;;;;;;;1.03;0.93;;;11.60;88.20;;;;;;4942905;28;20483;-90
2023/04/13 10:52:11;;;;;;;0.90;0.80;;;11.60;88.30;;;;;;4937118;29;20476;-89
2023/04/13 10:54:38;;;;;;;1.30;1.20;;;11.60;88.10;;;;;;4943763;28;20425;-90
2023/04/13 10:57:05;;;;;;;3.40;1.07;;;11.60;88.50;;;;;;4922393;29;20508;-89
2023/04/13 10:59:43;;;;;;;0.90;0.87;;;11.70;88.90;;;;;;4925648;29;20923;-90
2023/04/13 11:02:13;;;;;;;4.10;1.57;;;11.90;89.10;;;;;;4941839;29;20867;-90
2023/04/13 11:04:43;;;;;;;1.00;0.90;;;11.90;88.20;;;;;;4933419;29;20979;-89
2023/04/13 11:07:27;;;;;;;1.00;0.90;;;11.90;88.50;;;;;;4930533;29;20423;-89
2023/04/13 11:09:57;;;;;;;0.97;0.87;;;12.00;88.40;;;;;;4922413;29;20415;-89
2023/04/13 11:12:22;;;;;;;0.90;0.80;;;11.90;88.00;;;;;;4927590;29;20522;-90
2023/04/13 11:14:49;;;;;;;0.73;0.70;;;11.90;87.90;;;;;;4933185;29;20945;-89
2023/04/13 11:17:17;;;;;;;1.13;1.03;;;11.90;87.60;;;;;;4926904;29;20180;-89
2023/04/13 11:19:48;;;;;;;0.93;0.83;;;11.90;87.90;;;;;;4920700;29;21063;-89
2023/04/13 11:22:17;;;;;;;1.20;1.10;;;12.00;87.50;;;;;;4932585;29;20596;-88
2023/04/13 11:24:44;;;;;;;1.00;0.90;;;12.10;88.00;;;;;;4929010;29;20435;-90
2023/04/13 11:27:22;;;;;;;1.87;1.77;;;12.20;87.20;;;;;;4925645;29;20486;-91
2023/04/13 11:30:06;;;;;;;0.80;0.70;;;12.30;87.50;;;;;;4939710;29;20452;-89
2023/04/13 11:32:38;;;;;;;1.00;0.90;;;12.50;87.20;;;;;;4929718;29;20465;-88
2023/04/13 11:35:08;;;;;;;0.90;0.80;;;12.60;86.70;;;;;;4937924;29;20807;-89
2023/04/13 11:37:42;;;;;;;1.20;1.10;;;12.60;86.00;;;;;;4939471;29;20432;-89
2023/04/13 11:40:20;;;;;;;0.77;0.73;;;12.60;87.60;;;;;;4940523;29;20471;-89
2023/04/13 11:42:58;;;;;;;2.50;2.07;;;12.70;86.10;;;;;;4922357;29;20420;-89
2023/04/13 11:45:26;;;;;;;1.27;0.90;;;12.70;86.20;;;;;;4934973;29;21077;-88
2023/04/13 11:47:52;;;;;;;4.60;1.00;;;12.70;86.40;;;;;;4936376;29;20794;-88
2023/04/13 11:50:20;;;;;;;1.97;1.87;;;12.90;87.10;;;;;;4939749;29;20874;-89
2023/04/13 11:52:47;;;;;;;1.47;1.27;;;13.00;86.20;;;;;;4935491;29;20427;-88
2023/04/13 11:55:14;;;;;;;0.90;0.80;;;13.00;86.50;;;;;;4933328;29;20858;-88
2023/04/13 11:57:40;;;;;;;1.03;0.93;;;13.00;86.60;;;;;;4958189;28;20796;-88
2023/04/13 12:00:22;;;;;;;0.97;0.87;;;13.00;86.10;;;;;;4924328;29;20460;-89
2023/04/13 12:02:50;;;;;;;1.57;1.47;;;13.00;85.40;;;;;;4944030;29;20645;-89
2023/04/13 12:05:26;;;;;;;0.90;0.80;;;13.00;85.00;;;;;;4929189;29;20421;-89
2023/04/13 12:07:53;;;;;;;0.90;0.80;;;13.10;86.00;;;;;;4940227;29;20459;-88
2023/04/13 12:10:26;;;;;;;1.07;0.97;;;13.10;85.60;;;;;;4936937;29;20466;-88
2023/04/13 12:12:59;;;;;;;3.73;1.20;;;13.00;84.40;;;;;;4934801;29;20423;-87
2023/04/13 12:15:30;;;;;;;1.20;1.10;;;12.90;85.80;;;;;;4945358;29;20420;-88
2023/04/13 12:17:58;;;;;;;1.30;1.20;;;13.00;85.90;;;;;;4946409;28;20802;-87
2023/04/13 12:20:24;;;;;;;1.53;1.07;;;13.10;85.50;;;;;;4934191;29;20882;-89
2023/04/13 12:22:51;;;;;;;1.00;0.90;;;13.10;85.70;;;;;;4944062;28;20463;-89
2023/04/13 12:25:18;;;;;;;1.10;1.00;;;13.10;85.20;;;;;;4929086;28;20420;-89
2023/04/13 12:27:44;;;;;;;1.20;1.10;;;13.10;85.30;;;;;;4940529;29;20456;-88
2023/04/13 12:30:14;;;;;;;1.33;1.13;;;13.40;85.40;;;;;;4931131;29;20431;-88
2023/04/13 12:32:45;;;;;;;1.20;1.10;;;14.10;85.90;;;;;;4932367;29;20455;-88
2023/04/13 12:35:11;;;;;;;1.20;1.10;;;;;;;;;;4935029;29;20478;-87
2023/04/13 12:37:41;;;;;;;1.87;1.40;;;14.80;82.60;;;;;;4933687;29;20831;-87
2023/04/13 12:40:12;;;;;;;0.90;0.80;;;14.70;82.20;;;;;;4929268;29;20470;-87
2023/04/13 12:42:45;;;;;;;2.30;1.55;;;14.80;82.10;;;;;;4935738;29;20438;-89
2023/04/13 12:45:12;;;;;;;1.07;0.97;;;14.60;81.80;;;;;;4933662;29;20519;-87
2023/04/13 12:47:38;;;;;;;1.20;1.10;;;14.60;82.60;;;;;;4928345;29;20843;-89
2023/04/13 12:50:05;;;;;;;1.23;1.20;;;14.90;82.40;;;;;;4932793;29;20462;-90
2023/04/13 12:52:31;;;;;;;15.93;1.17;;;14.90;81.90;;;;;;4926791;29;20209;-87
2023/04/13 12:55:00;;;;;;;1.00;0.90;;;14.70;81.70;;;;;;4930024;29;20522;-87
2023/04/13 12:57:27;;;;;;;1.10;1.00;;;14.40;82.50;;;;;;4936214;29;20223;-88
2023/04/13 12:59:54;;;;;;;1.10;1.00;;;14.20;83.00;;;;;;4934562;29;20816;-88